Terminal Aerodrome Forecast
Issued by NWS Omaha/Valley, NE

Home | Current Version | Previous Version | Text Only | Print | Product List | Glossary Off
Versions: 1 2 3 4 5 6 7 8 9 10 11 12 13 14 15

000
FTUS43 KOAX 201120
TAFOFK
TAF
KOFK 201120Z 2012/2112 33012G22KT P6SM SCT015 OVC035
     FM201700 32015G23KT P6SM SCT035
     FM210000 33011KT P6SM SCT060
     FM210600 32007KT P6SM FEW250=

USA.gov is the U.S. government's official web portal to all federal, state and local government web resources and services.